sensor_id;sensor_type;location;lat;lon;timestamp;pressure;altitude;pressure_sealevel;temperature;humidity
45763;BME280;37512;52.408;13.356;2022-12-07T00:02:37;100865.72;;;0.98;100.00
45763;BME280;37512;52.408;13.356;2022-12-07T00:06:44;100867.09;;;1.15;100.00
45763;BME280;37512;52.408;13.356;2022-12-07T00:10:45;100864.38;;;0.96;100.00
45763;BME280;37512;52.408;13.356;2022-12-07T00:14:47;100858.88;;;1.15;100.00
45763;BME280;37512;52.408;13.356;2022-12-07T00:18:48;100842.28;;;0.92;100.00
45763;BME280;37512;52.408;13.356;2022-12-07T00:22:50;100851.00;;;1.27;100.00
45763;BME280;37512;52.408;13.356;2022-12-07T00:26:52;100841.06;;;1.17;100.00
45763;BME280;37512;52.408;13.356;2022-12-07T00:31:09;100839.94;;;1.18;100.00
45763;BME280;37512;52.408;13.356;2022-12-07T00:35:10;100828.84;;;0.96;100.00
45763;BME280;37512;52.408;13.356;2022-12-07T00:39:12;100821.88;;;1.03;100.00
45763;BME280;37512;52.408;13.356;2022-12-07T00:43:13;100822.81;;;0.80;100.00
45763;BME280;37512;52.408;13.356;2022-12-07T00:47:14;100810.31;;;0.74;100.00
45763;BME280;37512;52.408;13.356;2022-12-07T00:51:17;100810.25;;;0.79;100.00
45763;BME280;37512;52.408;13.356;2022-12-07T00:55:19;100810.72;;;0.48;100.00
45763;BME280;37512;52.408;13.356;2022-12-07T00:59:21;100800.00;;;0.52;100.00
45763;BME280;37512;52.408;13.356;2022-12-07T01:03:22;100800.34;;;0.45;100.00
45763;BME280;37512;52.408;13.356;2022-12-07T01:07:24;100796.38;;;0.56;100.00
45763;BME280;37512;52.408;13.356;2022-12-07T01:11:28;100806.13;;;0.62;100.00
45763;BME280;37512;52.408;13.356;2022-12-07T01:15:30;100794.16;;;0.39;100.00
45763;BME280;37512;52.408;13.356;2022-12-07T01:19:31;100790.59;;;0.77;100.00
45763;BME280;37512;52.408;13.356;2022-12-07T01:23:34;100795.03;;;0.54;100.00
45763;BME280;37512;52.408;13.356;2022-12-07T01:27:36;100790.78;;;0.67;100.00
45763;BME280;37512;52.408;13.356;2022-12-07T01:31:38;100780.47;;;0.77;100.00
45763;BME280;37512;52.408;13.356;2022-12-07T01:35:39;100762.34;;;0.68;100.00
45763;BME280;37512;52.408;13.356;2022-12-07T01:39:41;100770.91;;;0.61;100.00
45763;BME280;37512;52.408;13.356;2022-12-07T01:48:11;100766.31;;;0.56;100.00
45763;BME280;37512;52.408;13.356;2022-12-07T01:52:31;100769.72;;;0.67;100.00
45763;BME280;37512;52.408;13.356;2022-12-07T01:56:34;100773.03;;;0.45;100.00
45763;BME280;37512;52.408;13.356;2022-12-07T02:00:37;100758.72;;;0.15;100.00
45763;BME280;37512;52.408;13.356;2022-12-07T02:04:39;100759.16;;;0.23;100.00
45763;BME280;37512;52.408;13.356;2022-12-07T02:08:42;100748.94;;;0.14;100.00
45763;BME280;37512;52.408;13.356;2022-12-07T02:12:50;100748.63;;;0.16;100.00
45763;BME280;37512;52.408;13.356;2022-12-07T02:17:03;100745.66;;;-0.07;100.00
45763;BME280;37512;52.408;13.356;2022-12-07T02:29:37;100746.16;;;-0.05;100.00
45763;BME280;37512;52.408;13.356;2022-12-07T02:33:47;100733.41;;;-0.09;100.00
45763;BME280;37512;52.408;13.356;2022-12-07T02:42:19;100727.75;;;-0.37;100.00
45763;BME280;37512;52.408;13.356;2022-12-07T02:46:30;100725.59;;;-0.40;100.00
45763;BME280;37512;52.408;13.356;2022-12-07T02:50:33;100726.88;;;-0.32;100.00
45763;BME280;37512;52.408;13.356;2022-12-07T02:54:35;100724.91;;;-0.27;100.00
45763;BME280;37512;52.408;13.356;2022-12-07T03:03:22;100714.44;;;-0.19;100.00
45763;BME280;37512;52.408;13.356;2022-12-07T03:07:43;100700.16;;;-0.11;100.00
45763;BME280;37512;52.408;13.356;2022-12-07T03:11:56;100705.47;;;-0.20;100.00
45763;BME280;37512;52.408;13.356;2022-12-07T03:16:11;100699.94;;;-0.15;100.00
45763;BME280;37512;52.408;13.356;2022-12-07T03:20:17;100695.28;;;-0.14;100.00
45763;BME280;37512;52.408;13.356;2022-12-07T03:24:25;100686.81;;;-0.13;100.00
45763;BME280;37512;52.408;13.356;2022-12-07T03:28:33;100676.50;;;-0.16;100.00
45763;BME280;37512;52.408;13.356;2022-12-07T03:36:48;100662.25;;;0.06;100.00
45763;BME280;37512;52.408;13.356;2022-12-07T03:40:56;100644.63;;;-0.02;100.00
45763;BME280;37512;52.408;13.356;2022-12-07T03:45:01;100643.75;;;0.03;100.00
45763;BME280;37512;52.408;13.356;2022-12-07T03:49:30;100636.41;;;0.17;100.00
45763;BME280;37512;52.408;13.356;2022-12-07T03:53:49;100622.25;;;0.15;100.00
45763;BME280;37512;52.408;13.356;2022-12-07T03:57:58;100617.53;;;0.02;100.00
45763;BME280;37512;52.408;13.356;2022-12-07T04:02:04;100613.69;;;0.22;100.00
45763;BME280;37512;52.408;13.356;2022-12-07T04:06:06;100608.88;;;0.00;100.00
45763;BME280;37512;52.408;13.356;2022-12-07T04:10:08;100604.84;;;0.11;100.00
45763;BME280;37512;52.408;13.356;2022-12-07T04:14:09;100607.59;;;-0.08;100.00
45763;BME280;37512;52.408;13.356;2022-12-07T04:18:20;100614.69;;;-0.07;100.00
45763;BME280;37512;52.408;13.356;2022-12-07T04:22:21;100607.53;;;-0.03;100.00
45763;BME280;37512;52.408;13.356;2022-12-07T04:26:23;100606.38;;;-0.15;100.00
45763;BME280;37512;52.408;13.356;2022-12-07T04:30:24;100607.91;;;-0.28;100.00
45763;BME280;37512;52.408;13.356;2022-12-07T04:34:26;100615.63;;;-0.16;100.00
45763;BME280;37512;52.408;13.356;2022-12-07T04:38:27;100593.81;;;-0.16;100.00
45763;BME280;37512;52.408;13.356;2022-12-07T04:42:28;100601.19;;;-0.17;100.00
45763;BME280;37512;52.408;13.356;2022-12-07T04:46:31;100586.59;;;-0.07;100.00
45763;BME280;37512;52.408;13.356;2022-12-07T04:50:35;100597.94;;;-0.19;100.00
45763;BME280;37512;52.408;13.356;2022-12-07T04:54:36;100589.63;;;-0.09;100.00
45763;BME280;37512;52.408;13.356;2022-12-07T04:58:37;100589.03;;;-0.06;100.00
45763;BME280;37512;52.408;13.356;2022-12-07T05:02:39;100576.56;;;0.07;100.00
45763;BME280;37512;52.408;13.356;2022-12-07T05:06:40;100572.78;;;0.03;100.00
45763;BME280;37512;52.408;13.356;2022-12-07T05:10:42;100568.47;;;0.16;100.00
45763;BME280;37512;52.408;13.356;2022-12-07T05:14:43;100569.50;;;0.20;100.00
45763;BME280;37512;52.408;13.356;2022-12-07T05:18:45;100573.53;;;0.23;100.00
45763;BME280;37512;52.408;13.356;2022-12-07T05:22:46;100562.72;;;0.17;100.00
45763;BME280;37512;52.408;13.356;2022-12-07T05:26:48;100554.56;;;0.31;100.00
45763;BME280;37512;52.408;13.356;2022-12-07T05:30:49;100549.91;;;0.32;100.00
45763;BME280;37512;52.408;13.356;2022-12-07T05:34:57;100548.19;;;0.36;100.00
45763;BME280;37512;52.408;13.356;2022-12-07T05:38:59;100550.41;;;0.34;100.00
45763;BME280;37512;52.408;13.356;2022-12-07T05:43:01;100550.41;;;0.34;100.00
45763;BME280;37512;52.408;13.356;2022-12-07T05:47:05;100559.25;;;0.45;100.00
45763;BME280;37512;52.408;13.356;2022-12-07T05:51:06;100554.41;;;0.55;100.00
45763;BME280;37512;52.408;13.356;2022-12-07T05:55:08;100542.88;;;0.45;100.00
45763;BME280;37512;52.408;13.356;2022-12-07T05:59:09;100542.88;;;0.58;100.00
45763;BME280;37512;52.408;13.356;2022-12-07T06:03:28;100544.69;;;0.49;100.00
45763;BME280;37512;52.408;13.356;2022-12-07T06:07:29;100534.00;;;0.67;100.00
45763;BME280;37512;52.408;13.356;2022-12-07T06:11:31;100523.47;;;0.74;100.00
45763;BME280;37512;52.408;13.356;2022-12-07T06:15:51;100514.16;;;0.61;100.00
45763;BME280;37512;52.408;13.356;2022-12-07T06:19:53;100515.69;;;0.67;100.00
45763;BME280;37512;52.408;13.356;2022-12-07T06:23:54;100519.53;;;0.80;100.00
45763;BME280;37512;52.408;13.356;2022-12-07T06:27:56;100514.34;;;0.92;100.00
45763;BME280;37512;52.408;13.356;2022-12-07T06:31:57;100508.50;;;0.85;100.00
45763;BME280;37512;52.408;13.356;2022-12-07T06:35:59;100519.53;;;0.94;100.00
45763;BME280;37512;52.408;13.356;2022-12-07T06:40:00;100512.53;;;1.01;100.00
45763;BME280;37512;52.408;13.356;2022-12-07T06:44:04;100509.88;;;1.10;100.00
45763;BME280;37512;52.408;13.356;2022-12-07T06:48:06;100510.78;;;1.06;100.00
45763;BME280;37512;52.408;13.356;2022-12-07T06:52:07;100521.41;;;1.21;100.00
45763;BME280;37512;52.408;13.356;2022-12-07T06:56:09;100514.72;;;1.13;100.00
45763;BME280;37512;52.408;13.356;2022-12-07T07:00:11;100502.56;;;1.19;100.00
45763;BME280;37512;52.408;13.356;2022-12-07T07:04:20;100508.84;;;1.20;100.00
45763;BME280;37512;52.408;13.356;2022-12-07T07:08:22;100501.66;;;1.24;100.00
45763;BME280;37512;52.408;13.356;2022-12-07T07:12:24;100504.25;;;1.29;100.00
45763;BME280;37512;52.408;13.356;2022-12-07T07:16:25;100502.13;;;1.40;100.00
45763;BME280;37512;52.408;13.356;2022-12-07T07:20:27;100515.03;;;1.48;100.00
45763;BME280;37512;52.408;13.356;2022-12-07T07:24:29;100509.34;;;1.58;100.00
45763;BME280;37512;52.408;13.356;2022-12-07T07:28:30;100508.47;;;1.72;100.00
45763;BME280;37512;52.408;13.356;2022-12-07T07:32:32;100507.91;;;1.83;100.00
45763;BME280;37512;52.408;13.356;2022-12-07T07:36:34;100506.34;;;1.91;100.00
45763;BME280;37512;52.408;13.356;2022-12-07T07:40:36;100508.28;;;1.91;100.00
45763;BME280;37512;52.408;13.356;2022-12-07T07:44:37;100506.25;;;1.96;100.00
45763;BME280;37512;52.408;13.356;2022-12-07T07:48:39;100495.31;;;1.96;100.00
45763;BME280;37512;52.408;13.356;2022-12-07T07:52:40;100495.75;;;1.90;100.00
45763;BME280;37512;52.408;13.356;2022-12-07T07:56:42;100495.97;;;2.02;100.00
45763;BME280;37512;52.408;13.356;2022-12-07T08:00:43;100499.00;;;2.00;100.00
45763;BME280;37512;52.408;13.356;2022-12-07T08:04:45;100492.59;;;2.05;100.00
45763;BME280;37512;52.408;13.356;2022-12-07T08:08:47;100492.09;;;2.03;100.00
45763;BME280;37512;52.408;13.356;2022-12-07T08:12:48;100493.00;;;1.90;100.00
45763;BME280;37512;52.408;13.356;2022-12-07T08:17:09;100507.06;;;1.97;100.00
45763;BME280;37512;52.408;13.356;2022-12-07T08:21:13;100505.03;;;2.11;100.00
45763;BME280;37512;52.408;13.356;2022-12-07T08:25:15;100509.84;;;2.05;100.00
45763;BME280;37512;52.408;13.356;2022-12-07T08:29:17;100507.47;;;2.13;100.00
45763;BME280;37512;52.408;13.356;2022-12-07T08:33:19;100498.22;;;2.31;100.00
45763;BME280;37512;52.408;13.356;2022-12-07T08:37:26;100495.25;;;2.50;100.00
45763;BME280;37512;52.408;13.356;2022-12-07T08:41:27;100498.97;;;2.54;100.00
45763;BME280;37512;52.408;13.356;2022-12-07T08:45:29;100494.13;;;2.51;100.00
45763;BME280;37512;52.408;13.356;2022-12-07T08:49:36;100504.44;;;2.54;100.00
45763;BME280;37512;52.408;13.356;2022-12-07T08:53:39;100501.47;;;2.33;100.00
45763;BME280;37512;52.408;13.356;2022-12-07T08:57:42;100502.13;;;2.39;100.00
45763;BME280;37512;52.408;13.356;2022-12-07T09:01:43;100509.69;;;2.33;100.00
45763;BME280;37512;52.408;13.356;2022-12-07T09:05:45;100501.75;;;2.32;100.00
45763;BME280;37512;52.408;13.356;2022-12-07T09:09:47;100509.97;;;2.32;100.00
45763;BME280;37512;52.408;13.356;2022-12-07T09:13:48;100513.44;;;2.15;100.00
45763;BME280;37512;52.408;13.356;2022-12-07T09:17:49;100532.78;;;2.18;100.00
45763;BME280;37512;52.408;13.356;2022-12-07T09:21:51;100508.06;;;2.09;100.00
45763;BME280;37512;52.408;13.356;2022-12-07T09:25:52;100504.94;;;2.25;100.00
45763;BME280;37512;52.408;13.356;2022-12-07T09:29:54;100513.31;;;2.20;100.00
45763;BME280;37512;52.408;13.356;2022-12-07T09:33:58;100517.22;;;2.05;100.00
45763;BME280;37512;52.408;13.356;2022-12-07T09:38:00;100512.38;;;2.24;100.00
45763;BME280;37512;52.408;13.356;2022-12-07T09:42:03;100518.19;;;2.32;100.00
45763;BME280;37512;52.408;13.356;2022-12-07T09:46:13;100521.97;;;2.13;100.00
45763;BME280;37512;52.408;13.356;2022-12-07T09:50:21;100521.13;;;2.35;100.00
45763;BME280;37512;52.408;13.356;2022-12-07T09:54:26;100528.88;;;2.11;100.00
45763;BME280;37512;52.408;13.356;2022-12-07T09:58:30;100540.63;;;2.11;100.00
45763;BME280;37512;52.408;13.356;2022-12-07T10:02:41;100541.75;;;2.10;100.00
45763;BME280;37512;52.408;13.356;2022-12-07T10:06:47;100548.34;;;2.09;100.00
45763;BME280;37512;52.408;13.356;2022-12-07T10:10:56;100554.31;;;2.11;100.00
45763;BME280;37512;52.408;13.356;2022-12-07T10:15:05;100543.44;;;1.97;100.00
45763;BME280;37512;52.408;13.356;2022-12-07T10:23:19;100563.09;;;1.99;100.00
45763;BME280;37512;52.408;13.356;2022-12-07T10:27:26;100549.47;;;2.08;100.00
45763;BME280;37512;52.408;13.356;2022-12-07T10:31:28;100536.53;;;2.00;100.00
45763;BME280;37512;52.408;13.356;2022-12-07T10:35:30;100533.13;;;1.94;100.00
45763;BME280;37512;52.408;13.356;2022-12-07T10:39:44;100533.41;;;2.15;100.00
45763;BME280;37512;52.408;13.356;2022-12-07T10:43:50;100535.13;;;2.34;100.00
45763;BME280;37512;52.408;13.356;2022-12-07T10:57:07;100527.94;;;2.15;100.00
45763;BME280;37512;52.408;13.356;2022-12-07T11:01:28;100525.03;;;2.43;100.00
45763;BME280;37512;52.408;13.356;2022-12-07T11:05:56;100521.31;;;2.16;100.00
45763;BME280;37512;52.408;13.356;2022-12-07T11:14:53;100519.50;;;2.34;100.00
45763;BME280;37512;52.408;13.356;2022-12-07T11:24:07;100520.44;;;2.29;100.00
45763;BME280;37512;52.408;13.356;2022-12-07T11:28:24;100520.53;;;2.47;100.00
45763;BME280;37512;52.408;13.356;2022-12-07T11:36:46;100512.47;;;2.42;100.00
45763;BME280;37512;52.408;13.356;2022-12-07T11:40:53;100499.22;;;2.35;100.00
45763;BME280;37512;52.408;13.356;2022-12-07T11:45:02;100504.75;;;2.53;100.00
45763;BME280;37512;52.408;13.356;2022-12-07T11:49:45;100510.56;;;2.51;100.00
45763;BME280;37512;52.408;13.356;2022-12-07T11:53:46;100507.06;;;2.68;100.00
45763;BME280;37512;52.408;13.356;2022-12-07T11:57:57;100509.66;;;2.73;100.00
45763;BME280;37512;52.408;13.356;2022-12-07T12:02:24;100498.09;;;2.76;100.00
45763;BME280;37512;52.408;13.356;2022-12-07T12:06:28;100493.06;;;2.69;100.00
45763;BME280;37512;52.408;13.356;2022-12-07T12:15:23;100494.13;;;2.60;100.00
45763;BME280;37512;52.408;13.356;2022-12-07T12:19:37;100490.44;;;2.56;100.00
45763;BME280;37512;52.408;13.356;2022-12-07T12:23:50;100494.97;;;2.60;100.00
45763;BME280;37512;52.408;13.356;2022-12-07T12:27:57;100478.53;;;2.69;100.00
45763;BME280;37512;52.408;13.356;2022-12-07T12:48:35;100476.22;;;3.11;100.00
45763;BME280;37512;52.408;13.356;2022-12-07T13:05:30;100471.56;;;3.20;100.00
45763;BME280;37512;52.408;13.356;2022-12-07T13:09:34;100473.44;;;2.93;100.00
45763;BME280;37512;52.408;13.356;2022-12-07T13:13:36;100468.97;;;3.06;100.00
45763;BME280;37512;52.408;13.356;2022-12-07T13:21:43;100465.06;;;2.99;100.00
45763;BME280;37512;52.408;13.356;2022-12-07T13:25:59;100456.38;;;3.14;100.00
45763;BME280;37512;52.408;13.356;2022-12-07T13:30:18;100448.16;;;2.97;100.00
45763;BME280;37512;52.408;13.356;2022-12-07T13:34:35;100458.91;;;2.84;100.00
45763;BME280;37512;52.408;13.356;2022-12-07T13:38:37;100456.34;;;2.88;100.00
45763;BME280;37512;52.408;13.356;2022-12-07T13:42:39;100451.84;;;2.83;100.00
45763;BME280;37512;52.408;13.356;2022-12-07T13:46:49;100459.56;;;2.81;100.00
45763;BME280;37512;52.408;13.356;2022-12-07T13:50:54;100456.31;;;2.70;100.00
45763;BME280;37512;52.408;13.356;2022-12-07T13:55:15;100472.25;;;2.68;100.00
45763;BME280;37512;52.408;13.356;2022-12-07T13:59:21;100473.72;;;2.75;100.00
45763;BME280;37512;52.408;13.356;2022-12-07T14:03:30;100466.81;;;2.77;100.00
45763;BME280;37512;52.408;13.356;2022-12-07T14:07:33;100465.03;;;2.72;100.00
45763;BME280;37512;52.408;13.356;2022-12-07T14:11:35;100471.16;;;2.69;100.00
45763;BME280;37512;52.408;13.356;2022-12-07T14:15:38;100471.59;;;2.63;100.00
45763;BME280;37512;52.408;13.356;2022-12-07T14:19:46;100464.88;;;2.78;100.00
45763;BME280;37512;52.408;13.356;2022-12-07T14:28:09;100473.56;;;2.80;100.00
45763;BME280;37512;52.408;13.356;2022-12-07T14:32:30;100474.03;;;2.73;100.00
45763;BME280;37512;52.408;13.356;2022-12-07T14:36:32;100462.78;;;2.75;100.00
45763;BME280;37512;52.408;13.356;2022-12-07T14:40:33;100464.69;;;2.65;100.00
45763;BME280;37512;52.408;13.356;2022-12-07T14:44:35;100457.03;;;2.45;100.00
45763;BME280;37512;52.408;13.356;2022-12-07T14:48:36;100458.53;;;2.51;100.00
45763;BME280;37512;52.408;13.356;2022-12-07T14:53:09;100467.50;;;2.43;100.00
45763;BME280;37512;52.408;13.356;2022-12-07T14:57:27;100466.34;;;2.44;100.00
45763;BME280;37512;52.408;13.356;2022-12-07T15:01:29;100463.41;;;2.32;100.00
45763;BME280;37512;52.408;13.356;2022-12-07T15:05:30;100474.06;;;2.33;100.00
45763;BME280;37512;52.408;13.356;2022-12-07T15:09:32;100469.56;;;2.37;100.00
45763;BME280;37512;52.408;13.356;2022-12-07T15:13:34;100460.03;;;2.26;100.00
45763;BME280;37512;52.408;13.356;2022-12-07T15:17:54;100461.41;;;2.15;100.00
45763;BME280;37512;52.408;13.356;2022-12-07T15:21:56;100459.25;;;2.03;100.00
45763;BME280;37512;52.408;13.356;2022-12-07T15:25:58;100452.34;;;2.05;100.00
45763;BME280;37512;52.408;13.356;2022-12-07T15:30:00;100460.72;;;2.09;100.00
45763;BME280;37512;52.408;13.356;2022-12-07T15:34:02;100458.09;;;1.95;100.00
45763;BME280;37512;52.408;13.356;2022-12-07T15:38:03;100464.13;;;1.83;100.00
45763;BME280;37512;52.408;13.356;2022-12-07T15:42:05;100464.00;;;1.88;100.00
45763;BME280;37512;52.408;13.356;2022-12-07T15:46:07;100464.06;;;1.75;100.00
45763;BME280;37512;52.408;13.356;2022-12-07T15:50:11;100458.97;;;1.82;100.00
45763;BME280;37512;52.408;13.356;2022-12-07T15:54:19;100448.00;;;1.82;100.00
45763;BME280;37512;52.408;13.356;2022-12-07T15:58:20;100455.81;;;1.66;100.00
45763;BME280;37512;52.408;13.356;2022-12-07T16:02:22;100460.03;;;1.72;100.00
45763;BME280;37512;52.408;13.356;2022-12-07T16:06:24;100456.06;;;1.56;100.00
45763;BME280;37512;52.408;13.356;2022-12-07T16:10:26;100462.03;;;1.58;100.00
45763;BME280;37512;52.408;13.356;2022-12-07T16:14:28;100463.69;;;1.45;100.00
45763;BME280;37512;52.408;13.356;2022-12-07T16:18:29;100464.00;;;1.43;100.00
45763;BME280;37512;52.408;13.356;2022-12-07T16:22:31;100471.47;;;1.52;100.00
45763;BME280;37512;52.408;13.356;2022-12-07T16:26:32;100466.88;;;1.61;100.00
45763;BME280;37512;52.408;13.356;2022-12-07T16:30:34;100465.19;;;1.51;100.00
45763;BME280;37512;52.408;13.356;2022-12-07T16:34:35;100466.00;;;1.52;100.00
45763;BME280;37512;52.408;13.356;2022-12-07T16:38:37;100464.00;;;1.43;100.00
45763;BME280;37512;52.408;13.356;2022-12-07T16:42:39;100465.34;;;1.46;100.00
45763;BME280;37512;52.408;13.356;2022-12-07T16:46:41;100469.47;;;1.43;100.00
45763;BME280;37512;52.408;13.356;2022-12-07T16:50:43;100463.91;;;1.49;100.00
45763;BME280;37512;52.408;13.356;2022-12-07T16:54:51;100462.25;;;1.48;100.00
45763;BME280;37512;52.408;13.356;2022-12-07T16:58:52;100472.97;;;1.35;100.00
45763;BME280;37512;52.408;13.356;2022-12-07T17:02:54;100466.06;;;1.38;100.00
45763;BME280;37512;52.408;13.356;2022-12-07T17:06:56;100466.34;;;1.36;100.00
45763;BME280;37512;52.408;13.356;2022-12-07T17:10:58;100469.84;;;1.28;100.00
45763;BME280;37512;52.408;13.356;2022-12-07T17:15:00;100467.09;;;1.28;100.00
45763;BME280;37512;52.408;13.356;2022-12-07T17:19:21;100478.31;;;1.40;100.00
45763;BME280;37512;52.408;13.356;2022-12-07T17:23:23;100485.06;;;1.43;100.00
45763;BME280;37512;52.408;13.356;2022-12-07T17:27:26;100481.84;;;1.41;100.00
45763;BME280;37512;52.408;13.356;2022-12-07T17:31:27;100488.09;;;1.19;100.00
45763;BME280;37512;52.408;13.356;2022-12-07T17:35:29;100478.13;;;1.23;100.00
45763;BME280;37512;52.408;13.356;2022-12-07T17:39:31;100478.47;;;1.21;100.00
45763;BME280;37512;52.408;13.356;2022-12-07T17:43:32;100473.03;;;1.08;100.00
45763;BME280;37512;52.408;13.356;2022-12-07T17:47:36;100471.91;;;1.09;100.00
45763;BME280;37512;52.408;13.356;2022-12-07T17:51:39;100476.78;;;0.98;100.00
45763;BME280;37512;52.408;13.356;2022-12-07T17:56:10;100483.16;;;0.93;100.00
45763;BME280;37512;52.408;13.356;2022-12-07T18:00:29;100479.50;;;0.98;100.00
45763;BME280;37512;52.408;13.356;2022-12-07T18:04:31;100472.66;;;0.87;100.00
45763;BME280;37512;52.408;13.356;2022-12-07T18:08:36;100482.09;;;0.80;100.00
45763;BME280;37512;52.408;13.356;2022-12-07T18:12:39;100475.91;;;0.75;100.00
45763;BME280;37512;52.408;13.356;2022-12-07T18:16:41;100476.00;;;0.70;100.00
45763;BME280;37512;52.408;13.356;2022-12-07T18:20:42;100476.53;;;0.72;100.00
45763;BME280;37512;52.408;13.356;2022-12-07T18:24:44;100477.72;;;0.66;100.00
45763;BME280;37512;52.408;13.356;2022-12-07T18:28:46;100484.44;;;0.59;100.00
45763;BME280;37512;52.408;13.356;2022-12-07T18:32:47;100479.88;;;0.69;100.00
45763;BME280;37512;52.408;13.356;2022-12-07T18:36:49;100490.41;;;0.75;100.00
45763;BME280;37512;52.408;13.356;2022-12-07T18:40:51;100489.06;;;0.45;100.00
45763;BME280;37512;52.408;13.356;2022-12-07T18:44:53;100495.75;;;0.53;100.00
45763;BME280;37512;52.408;13.356;2022-12-07T18:48:54;100494.72;;;0.62;100.00
45763;BME280;37512;52.408;13.356;2022-12-07T18:53:00;100490.88;;;0.63;100.00
45763;BME280;37512;52.408;13.356;2022-12-07T18:57:02;100487.22;;;0.54;100.00
45763;BME280;37512;52.408;13.356;2022-12-07T19:01:03;100488.25;;;0.58;100.00
45763;BME280;37512;52.408;13.356;2022-12-07T19:05:05;100493.94;;;0.62;100.00
45763;BME280;37512;52.408;13.356;2022-12-07T19:09:07;100500.59;;;0.70;100.00
45763;BME280;37512;52.408;13.356;2022-12-07T19:13:09;100503.22;;;0.47;100.00
45763;BME280;37512;52.408;13.356;2022-12-07T19:17:12;100498.75;;;0.37;100.00
45763;BME280;37512;52.408;13.356;2022-12-07T19:21:14;100498.75;;;0.37;100.00
45763;BME280;37512;52.408;13.356;2022-12-07T19:25:15;100505.66;;;0.35;100.00
45763;BME280;37512;52.408;13.356;2022-12-07T19:29:17;100509.88;;;0.41;100.00
45763;BME280;37512;52.408;13.356;2022-12-07T19:33:19;100511.09;;;0.35;100.00
45763;BME280;37512;52.408;13.356;2022-12-07T19:37:20;100509.19;;;0.35;100.00
45763;BME280;37512;52.408;13.356;2022-12-07T19:41:22;100510.50;;;0.38;100.00
45763;BME280;37512;52.408;13.356;2022-12-07T19:45:35;100507.75;;;0.38;100.00
45763;BME280;37512;52.408;13.356;2022-12-07T19:49:37;100510.72;;;0.41;100.00
45763;BME280;37512;52.408;13.356;2022-12-07T19:53:38;100515.34;;;0.41;100.00
45763;BME280;37512;52.408;13.356;2022-12-07T19:57:40;100508.28;;;0.40;100.00
45763;BME280;37512;52.408;13.356;2022-12-07T20:01:42;100507.88;;;0.47;100.00
45763;BME280;37512;52.408;13.356;2022-12-07T20:05:44;100499.25;;;0.26;100.00
45763;BME280;37512;52.408;13.356;2022-12-07T20:09:45;100507.16;;;0.41;100.00
45763;BME280;37512;52.408;13.356;2022-12-07T20:13:47;100503.41;;;0.23;100.00
45763;BME280;37512;52.408;13.356;2022-12-07T20:17:48;100498.88;;;0.32;100.00
45763;BME280;37512;52.408;13.356;2022-12-07T20:21:50;100493.28;;;0.24;100.00
45763;BME280;37512;52.408;13.356;2022-12-07T20:25:52;100493.38;;;0.18;100.00
45763;BME280;37512;52.408;13.356;2022-12-07T20:29:54;100499.34;;;0.20;100.00
45763;BME280;37512;52.408;13.356;2022-12-07T20:33:56;100503.38;;;0.09;100.00
45763;BME280;37512;52.408;13.356;2022-12-07T20:38:00;100493.78;;;0.12;100.00
45763;BME280;37512;52.408;13.356;2022-12-07T20:42:02;100494.16;;;0.05;100.00
45763;BME280;37512;52.408;13.356;2022-12-07T20:46:23;100490.41;;;0.01;100.00
45763;BME280;37512;52.408;13.356;2022-12-07T20:50:24;100491.63;;;0.09;100.00
45763;BME280;37512;52.408;13.356;2022-12-07T20:54:26;100491.69;;;-0.10;100.00
45763;BME280;37512;52.408;13.356;2022-12-07T20:58:27;100502.09;;;-0.12;100.00
45763;BME280;37512;52.408;13.356;2022-12-07T21:02:29;100503.78;;;0.03;100.00
45763;BME280;37512;52.408;13.356;2022-12-07T21:06:30;100498.00;;;0.04;100.00
45763;BME280;37512;52.408;13.356;2022-12-07T21:10:34;100503.97;;;-0.27;100.00
45763;BME280;37512;52.408;13.356;2022-12-07T21:14:39;100506.00;;;-0.18;100.00
45763;BME280;37512;52.408;13.356;2022-12-07T21:18:42;100524.66;;;-0.26;100.00
45763;BME280;37512;52.408;13.356;2022-12-07T21:22:45;100523.34;;;-0.28;100.00
45763;BME280;37512;52.408;13.356;2022-12-07T21:26:51;100523.22;;;-0.18;100.00
45763;BME280;37512;52.408;13.356;2022-12-07T21:30:58;100523.31;;;-0.09;100.00
45763;BME280;37512;52.408;13.356;2022-12-07T21:35:15;100522.84;;;-0.30;100.00
45763;BME280;37512;52.408;13.356;2022-12-07T21:39:16;100516.84;;;-0.13;100.00
45763;BME280;37512;52.408;13.356;2022-12-07T21:43:18;100520.34;;;-0.27;100.00
45763;BME280;37512;52.408;13.356;2022-12-07T21:47:19;100510.78;;;-0.43;100.00
45763;BME280;37512;52.408;13.356;2022-12-07T21:51:22;100508.84;;;-0.43;100.00
45763;BME280;37512;52.408;13.356;2022-12-07T21:55:23;100515.47;;;-0.49;100.00
45763;BME280;37512;52.408;13.356;2022-12-07T21:59:25;100515.34;;;-0.57;100.00
45763;BME280;37512;52.408;13.356;2022-12-07T22:03:26;100527.19;;;-0.48;100.00
45763;BME280;37512;52.408;13.356;2022-12-07T22:07:28;100522.56;;;-0.48;100.00
45763;BME280;37512;52.408;13.356;2022-12-07T22:11:29;100519.16;;;-0.39;100.00
45763;BME280;37512;52.408;13.356;2022-12-07T22:15:31;100515.19;;;-0.47;100.00
45763;BME280;37512;52.408;13.356;2022-12-07T22:19:32;100523.94;;;-0.50;100.00
45763;BME280;37512;52.408;13.356;2022-12-07T22:23:34;100521.03;;;-0.73;100.00
45763;BME280;37512;52.408;13.356;2022-12-07T22:27:36;100518.28;;;-0.92;100.00
45763;BME280;37512;52.408;13.356;2022-12-07T22:31:38;100527.56;;;-0.93;100.00
45763;BME280;37512;52.408;13.356;2022-12-07T22:35:41;100520.00;;;-0.77;100.00